createdAt,value
2018-08-30T00:00:22.656Z,4.40
2018-08-30T00:02:51.768Z,5.33
2018-08-30T00:05:20.620Z,5.03
2018-08-30T00:07:49.035Z,4.63
2018-08-30T00:10:22.674Z,5.63
2018-08-30T00:12:52.782Z,5.80
2018-08-30T00:15:36.752Z,4.80
2018-08-30T00:18:11.862Z,5.80
2018-08-30T00:20:40.329Z,5.13
2018-08-30T00:23:08.973Z,5.00
2018-08-30T00:25:37.417Z,5.10
2018-08-30T00:28:05.848Z,5.30
2018-08-30T00:30:40.663Z,5.30
2018-08-30T00:33:13.293Z,5.50
2018-08-30T00:35:50.692Z,5.10
2018-08-30T00:38:22.106Z,6.00
2018-08-30T00:40:58.448Z,5.40
2018-08-30T00:43:30.748Z,4.90
2018-08-30T00:46:00.571Z,5.00
2018-08-30T00:48:30.665Z,5.50
2018-08-30T00:51:00.206Z,4.97
2018-08-30T00:53:30.613Z,5.40
2018-08-30T00:56:08.772Z,5.47
2018-08-30T00:58:37.181Z,5.57
2018-08-30T01:01:08.538Z,5.13
2018-08-30T01:03:45.346Z,6.07
2018-08-30T01:06:13.774Z,5.87
2018-08-30T01:08:47.809Z,5.63
2018-08-30T01:11:16.851Z,6.80
2018-08-30T01:13:45.265Z,6.60
2018-08-30T01:16:13.674Z,6.20
2018-08-30T01:18:42.082Z,5.80
2018-08-30T01:21:11.044Z,6.70
2018-08-30T01:23:39.518Z,6.63
2018-08-30T01:26:08.035Z,8.37
2018-08-30T01:28:37.093Z,7.50
2018-08-30T01:31:16.732Z,7.87
2018-08-30T01:33:56.170Z,7.40
2018-08-30T01:36:26.127Z,7.43
2018-08-30T01:38:55.805Z,7.50
2018-08-30T01:41:35.408Z,7.73
2018-08-30T01:44:14.093Z,8.23
2018-08-30T01:46:53.691Z,6.97
2018-08-30T01:49:27.060Z,6.63
2018-08-30T01:52:10.820Z,6.50
2018-08-30T01:54:45.422Z,6.90
2018-08-30T01:57:13.869Z,5.40
2018-08-30T02:02:23.968Z,5.67
2018-08-30T02:04:53.859Z,6.17
2018-08-30T02:07:32.855Z,6.33
2018-08-30T02:10:03.063Z,6.40
2018-08-30T02:12:42.095Z,7.40
2018-08-30T02:15:10.529Z,6.93
2018-08-30T02:17:51.497Z,6.90
2018-08-30T02:20:30.827Z,8.20
2018-08-30T02:23:00.507Z,6.87
2018-08-30T02:25:30.623Z,6.10
2018-08-30T02:28:12.992Z,6.87
2018-08-30T02:30:48.961Z,5.30
2018-08-30T02:33:19.644Z,5.70
2018-08-30T02:35:58.837Z,5.53
2018-08-30T02:38:36.991Z,5.53
2018-08-30T02:41:08.292Z,5.47
2018-08-30T02:43:46.691Z,4.77
2018-08-30T02:46:26.837Z,5.33
2018-08-30T02:48:57.457Z,5.50
2018-08-30T02:51:34.530Z,4.90
2018-08-30T02:54:06.884Z,4.60
2018-08-30T02:56:44.411Z,5.40
2018-08-30T02:59:23.954Z,5.07
2018-08-30T03:01:54.829Z,5.30
2018-08-30T03:04:33.378Z,5.90
2018-08-30T03:07:13.815Z,4.67
2018-08-30T03:09:53.673Z,4.90
2018-08-30T03:12:31.646Z,5.07
2018-08-30T03:15:11.442Z,4.43
2018-08-30T03:17:39.852Z,5.53
2018-08-30T03:20:10.066Z,5.00
2018-08-30T03:22:39.956Z,3.93
2018-08-30T03:25:08.474Z,3.83
2018-08-30T03:27:46.944Z,5.00
2018-08-30T03:30:15.392Z,3.97
2018-08-30T03:32:57.368Z,4.90
2018-08-30T03:35:37.309Z,5.37
2018-08-30T03:38:14.000Z,4.63
2018-08-30T03:40:53.292Z,4.60
2018-08-30T03:43:23.517Z,4.43
2018-08-30T03:45:51.938Z,4.30
2018-08-30T03:48:22.504Z,3.93
2018-08-30T03:50:52.726Z,4.50
2018-08-30T03:53:31.724Z,4.07
2018-08-30T03:56:01.544Z,4.57
2018-08-30T03:58:29.966Z,4.33
2018-08-30T04:01:00.556Z,4.20
2018-08-30T04:03:37.524Z,4.27
2018-08-30T04:06:05.960Z,5.10
2018-08-30T04:08:34.374Z,4.57
2018-08-30T04:11:02.770Z,4.83
2018-08-30T04:13:31.756Z,4.90
2018-08-30T04:16:00.218Z,4.63
2018-08-30T04:18:28.765Z,3.93
2018-08-30T04:20:59.235Z,4.20
2018-08-30T04:23:27.808Z,4.07
2018-08-30T04:25:58.026Z,4.27
2018-08-30T04:28:36.503Z,4.10
2018-08-30T04:31:06.338Z,4.73
2018-08-30T04:33:34.718Z,3.57
2018-08-30T04:36:03.234Z,4.20
2018-08-30T04:38:37.434Z,4.20
2018-08-30T04:41:16.142Z,3.90
2018-08-30T04:43:45.693Z,5.00
2018-08-30T04:46:14.117Z,3.80
2018-08-30T04:48:42.634Z,3.83
2018-08-30T04:51:16.596Z,3.50
2018-08-30T04:53:54.386Z,3.80
2018-08-30T04:56:22.786Z,3.90
2018-08-30T04:58:52.538Z,3.60
2018-08-30T05:01:24.380Z,3.60
2018-08-30T05:03:54.962Z,3.87
2018-08-30T05:06:24.569Z,3.50
2018-08-30T05:09:01.752Z,3.87
2018-08-30T05:11:33.118Z,3.60
2018-08-30T05:14:01.486Z,3.40
2018-08-30T05:16:44.193Z,3.70
2018-08-30T05:19:21.403Z,3.90
2018-08-30T05:21:52.428Z,3.67
2018-08-30T05:24:22.351Z,4.43
2018-08-30T05:26:55.559Z,4.07
2018-08-30T05:29:31.735Z,3.30
2018-08-30T05:32:07.179Z,3.97
2018-08-30T05:34:42.349Z,3.47
2018-08-30T05:37:20.921Z,3.77
2018-08-30T05:39:51.039Z,3.90
2018-08-30T05:42:33.349Z,3.93
2018-08-30T05:45:02.334Z,3.90
2018-08-30T05:47:30.757Z,3.60
2018-08-30T05:49:59.874Z,4.13
2018-08-30T05:52:28.385Z,2.80
2018-08-30T05:54:57.363Z,3.77
2018-08-30T05:57:25.765Z,3.50
2018-08-30T05:59:59.195Z,3.30
2018-08-30T06:02:29.684Z,3.93
2018-08-30T06:05:07.358Z,4.37
2018-08-30T06:07:35.894Z,3.60
2018-08-30T06:10:18.757Z,3.17
2018-08-30T06:12:47.109Z,3.60
2018-08-30T06:15:15.673Z,4.10
2018-08-30T06:17:47.498Z,4.03
2018-08-30T06:20:15.903Z,4.13
2018-08-30T06:22:54.369Z,4.17
2018-08-30T06:25:27.937Z,4.57
2018-08-30T06:28:04.629Z,4.40
2018-08-30T06:30:33.067Z,5.17
2018-08-30T06:33:01.466Z,5.53
2018-08-30T06:35:35.845Z,5.40
2018-08-30T06:38:05.996Z,5.93
2018-08-30T06:40:34.407Z,5.50
2018-08-30T06:43:08.583Z,5.00
2018-08-30T06:45:36.977Z,5.77
2018-08-30T06:48:05.405Z,5.80
2018-08-30T06:50:33.791Z,5.43
2018-08-30T06:53:14.043Z,5.80
2018-08-30T06:55:52.822Z,5.03
2018-08-30T06:58:28.202Z,5.30
2018-08-30T07:00:56.648Z,5.13
2018-08-30T07:03:31.869Z,5.33
2018-08-30T07:06:08.700Z,5.73
2018-08-30T07:08:37.160Z,6.37
2018-08-30T07:11:09.255Z,6.30
2018-08-30T07:13:37.702Z,6.03
2018-08-30T07:16:10.502Z,6.07
2018-08-30T07:18:48.534Z,5.87
2018-08-30T07:21:16.959Z,6.57
2018-08-30T07:23:48.278Z,6.00
2018-08-30T07:26:20.635Z,6.30
2018-08-30T07:28:49.008Z,6.90
2018-08-30T07:31:17.448Z,7.47
2018-08-30T07:33:55.414Z,7.70
2018-08-30T07:36:24.043Z,6.70
2018-08-30T07:38:52.474Z,7.03
2018-08-30T07:41:20.922Z,7.40
2018-08-30T07:43:54.866Z,8.23
2018-08-30T07:46:25.983Z,9.07
2018-08-30T07:49:03.738Z,8.60
2018-08-30T07:51:34.428Z,8.80
2018-08-30T07:54:02.820Z,9.90
2018-08-30T07:56:33.466Z,9.30
2018-08-30T07:59:01.882Z,9.63
2018-08-30T08:01:31.069Z,9.00
2018-08-30T08:03:59.464Z,9.20
2018-08-30T08:06:31.282Z,7.50
2018-08-30T08:09:04.786Z,9.07
2018-08-30T08:11:33.230Z,8.57
2018-08-30T08:14:01.610Z,8.23
2018-08-30T08:16:38.084Z,10.27
2018-08-30T08:19:10.245Z,9.90
2018-08-30T08:21:38.707Z,9.70
2018-08-30T08:24:07.081Z,10.13
2018-08-30T08:26:36.454Z,8.87
2018-08-30T08:29:08.243Z,9.37
2018-08-30T08:31:36.856Z,9.47
2018-08-30T08:34:05.286Z,10.00
2018-08-30T08:36:34.282Z,8.80
2018-08-30T08:39:11.402Z,10.07
2018-08-30T08:41:39.893Z,8.30
2018-08-30T08:44:08.334Z,9.07
2018-08-30T08:46:41.346Z,8.83
2018-08-30T08:51:42.623Z,7.90
2018-08-30T08:54:11.183Z,8.80
2018-08-30T08:56:43.202Z,9.30
2018-08-30T08:59:11.693Z,8.70
2018-08-30T09:01:40.403Z,7.67
2018-08-30T09:04:09.773Z,7.77
2018-08-30T09:06:48.681Z,5.70
2018-08-30T09:09:17.095Z,6.30
2018-08-30T09:14:19.918Z,7.20
2018-08-30T09:16:48.329Z,6.93
2018-08-30T09:19:16.746Z,6.60
2018-08-30T09:21:54.485Z,5.47
2018-08-30T09:24:23.319Z,7.17
2018-08-30T09:26:51.827Z,5.80
2018-08-30T09:29:20.238Z,6.53
2018-08-30T09:31:55.924Z,4.70
2018-08-30T09:34:34.220Z,5.57
2018-08-30T09:37:04.113Z,5.70
2018-08-30T09:39:37.339Z,6.20
2018-08-30T09:42:05.760Z,6.43
2018-08-30T09:44:34.258Z,7.43
2018-08-30T09:47:02.951Z,6.50
2018-08-30T09:49:40.445Z,6.30
2018-08-30T09:52:11.256Z,5.90
2018-08-30T09:54:39.697Z,8.27
2018-08-30T09:57:08.243Z,7.17
2018-08-30T09:59:39.842Z,7.57
2018-08-30T10:02:18.289Z,7.80
2018-08-30T10:04:48.727Z,6.53
2018-08-30T10:07:17.186Z,6.50
2018-08-30T10:09:45.619Z,6.80
2018-08-30T10:12:17.607Z,5.97
2018-08-30T10:14:46.024Z,6.40
2018-08-30T10:17:16.244Z,6.60
2018-08-30T10:19:50.960Z,7.10
2018-08-30T10:22:19.399Z,6.90
2018-08-30T10:24:47.818Z,7.23
2018-08-30T10:27:24.474Z,7.07
2018-08-30T10:29:56.015Z,8.30
2018-08-30T10:32:24.421Z,8.17
2018-08-30T10:34:52.538Z,7.50
2018-08-30T10:37:25.895Z,6.93
2018-08-30T10:40:01.759Z,7.13
2018-08-30T10:42:30.545Z,7.20
2018-08-30T10:44:58.989Z,7.87
2018-08-30T10:47:27.445Z,8.37
2018-08-30T10:49:59.795Z,8.50
2018-08-30T10:52:28.153Z,9.27
2018-08-30T10:54:56.563Z,8.10
2018-08-30T10:57:24.977Z,9.30
2018-08-30T10:59:53.579Z,8.10
2018-08-30T11:02:28.520Z,8.53
2018-08-30T11:07:49.289Z,9.83
2018-08-30T11:10:27.012Z,9.87
2018-08-30T11:15:32.360Z,8.40
2018-08-30T11:18:00.787Z,8.60
2018-08-30T11:20:29.473Z,8.07
2018-08-30T11:22:57.879Z,7.00
2018-08-30T11:25:34.404Z,8.17
2018-08-30T11:28:02.842Z,7.67
2018-08-30T11:30:31.311Z,9.57
2018-08-30T11:33:03.088Z,8.93
2018-08-30T11:35:33.820Z,8.53
2018-08-30T11:38:02.382Z,9.47
2018-08-30T11:40:30.829Z,9.80
2018-08-30T11:43:03.838Z,9.57
2018-08-30T11:45:46.512Z,9.70
2018-08-30T11:48:22.527Z,8.87
2018-08-30T11:50:55.753Z,9.00
2018-08-30T11:53:24.176Z,9.70
2018-08-30T11:55:52.378Z,8.47
2018-08-30T11:58:23.219Z,8.40
2018-08-30T12:01:00.828Z,8.30
2018-08-30T12:03:31.470Z,7.70
2018-08-30T12:06:01.249Z,7.20
2018-08-30T12:08:29.770Z,8.23
2018-08-30T12:10:58.792Z,8.10
2018-08-30T12:13:27.114Z,8.07
2018-08-30T12:15:55.544Z,8.17
2018-08-30T12:18:23.970Z,7.80
2018-08-30T12:20:52.432Z,7.80
2018-08-30T12:23:20.830Z,9.80
2018-08-30T12:25:49.302Z,8.60
2018-08-30T12:28:28.025Z,8.07
2018-08-30T12:31:05.376Z,8.00
2018-08-30T12:33:33.868Z,8.10
2018-08-30T12:36:02.420Z,7.60
2018-08-30T12:38:30.790Z,7.90
2018-08-30T12:41:05.060Z,10.00
2018-08-30T12:43:42.857Z,7.63
2018-08-30T12:46:11.279Z,7.70
2018-08-30T12:48:39.674Z,7.90
2018-08-30T12:51:08.220Z,8.93
2018-08-30T12:53:43.309Z,6.80
2018-08-30T12:56:16.812Z,7.10
2018-08-30T12:58:46.234Z,7.70
2018-08-30T13:01:14.718Z,7.80
2018-08-30T13:03:43.230Z,8.70
2018-08-30T13:06:19.021Z,6.87
2018-08-30T13:08:47.212Z,7.27
2018-08-30T13:11:15.678Z,6.37
2018-08-30T13:13:44.166Z,7.50
2018-08-30T13:16:21.709Z,5.83
2018-08-30T13:18:58.448Z,5.47
2018-08-30T13:21:26.900Z,6.10
2018-08-30T13:23:55.105Z,6.67
2018-08-30T13:26:23.764Z,5.57
2018-08-30T13:28:58.433Z,6.20
2018-08-30T13:31:28.216Z,6.13
2018-08-30T13:33:57.454Z,4.97
2018-08-30T13:36:25.632Z,5.73
2018-08-30T13:39:00.001Z,5.00
2018-08-30T13:41:37.555Z,25.03
2018-08-30T13:44:14.497Z,12.77
2018-08-30T13:46:43.269Z,10.23
2018-08-30T13:49:12.255Z,6.30
2018-08-30T13:51:40.882Z,5.60
2018-08-30T13:54:16.101Z,5.00
2018-08-30T13:56:47.019Z,5.10
2018-08-30T13:59:15.405Z,6.00
2018-08-30T14:01:44.149Z,6.43
2018-08-30T14:04:17.544Z,6.67
2018-08-30T14:06:53.343Z,13.00
2018-08-30T14:09:21.910Z,17.70
2018-08-30T14:11:50.676Z,14.13
2018-08-30T14:14:19.590Z,10.90
2018-08-30T14:16:52.939Z,7.60
2018-08-30T14:21:56.022Z,6.30
2018-08-30T14:24:24.434Z,7.97
2018-08-30T14:26:53.269Z,6.87
2018-08-30T14:29:28.358Z,6.77
2018-08-30T14:31:56.874Z,8.10
2018-08-30T14:34:24.956Z,6.87
2018-08-30T14:36:53.425Z,7.97
2018-08-30T14:39:31.633Z,7.20
2018-08-30T14:42:05.581Z,8.20
2018-08-30T14:44:34.016Z,7.53
2018-08-30T14:47:02.485Z,7.37
2018-08-30T14:49:31.100Z,6.83
2018-08-30T14:52:02.246Z,10.30
2018-08-30T14:54:30.768Z,7.40
2018-08-30T14:56:59.138Z,6.80
2018-08-30T14:59:30.682Z,7.67
2018-08-30T15:02:00.258Z,8.13
2018-08-30T15:04:28.848Z,8.17
2018-08-30T15:06:57.283Z,7.77
2018-08-30T15:09:29.052Z,8.40
2018-08-30T15:12:01.039Z,7.07
2018-08-30T15:14:30.514Z,7.90
2018-08-30T15:16:58.950Z,7.47
2018-08-30T15:19:29.864Z,8.10
2018-08-30T15:22:06.283Z,7.93
2018-08-30T15:24:34.626Z,7.50
2018-08-30T15:27:03.224Z,8.30
2018-08-30T15:29:31.621Z,9.03
2018-08-30T15:32:07.083Z,8.33
2018-08-30T15:34:35.295Z,8.70
2018-08-30T15:37:03.831Z,8.60
2018-08-30T15:39:32.259Z,9.60
2018-08-30T15:42:07.376Z,8.10
2018-08-30T15:44:35.775Z,7.10
2018-08-30T15:47:04.338Z,8.70
2018-08-30T15:49:33.138Z,8.90
2018-08-30T15:52:11.427Z,8.00
2018-08-30T15:54:42.285Z,8.40
2018-08-30T15:57:10.829Z,9.37
2018-08-30T15:59:39.318Z,8.60
2018-08-30T16:02:11.248Z,8.87
2018-08-30T16:04:39.880Z,8.43
2018-08-30T16:07:08.670Z,9.73
2018-08-30T16:09:37.346Z,9.43
2018-08-30T16:12:11.772Z,8.10
2018-08-30T16:14:40.333Z,8.50
2018-08-30T16:17:08.975Z,9.17
2018-08-30T16:19:37.480Z,9.60
2018-08-30T16:22:06.056Z,9.63
2018-08-30T16:24:47.506Z,9.30
2018-08-30T16:27:24.528Z,9.57
2018-08-30T16:30:01.393Z,8.60
2018-08-30T16:32:29.965Z,8.37
2018-08-30T16:34:58.444Z,10.67
2018-08-30T16:37:27.093Z,10.10
2018-08-30T16:40:04.473Z,9.43
2018-08-30T16:42:45.970Z,9.73
2018-08-30T16:45:22.849Z,9.10
2018-08-30T16:47:51.316Z,9.63
2018-08-30T16:50:19.852Z,8.73
2018-08-30T16:52:48.441Z,8.20
2018-08-30T16:55:26.751Z,9.50
2018-08-30T16:58:02.651Z,9.20
2018-08-30T17:00:31.238Z,8.97
2018-08-30T17:03:00.152Z,9.27
2018-08-30T17:05:29.056Z,8.70
2018-08-30T17:08:06.767Z,8.80
2018-08-30T17:10:42.593Z,8.80
2018-08-30T17:13:11.333Z,8.37
2018-08-30T17:15:40.023Z,9.03
2018-08-30T17:18:08.621Z,8.27
2018-08-30T17:20:45.679Z,9.77
2018-08-30T17:23:14.224Z,9.97
2018-08-30T17:25:43.492Z,10.00
2018-08-30T17:28:12.649Z,11.10
2018-08-30T17:30:48.893Z,10.33
2018-08-30T17:33:17.452Z,9.20
2018-08-30T17:35:45.922Z,9.00
2018-08-30T17:38:20.525Z,10.13
2018-08-30T17:40:49.056Z,9.60
2018-08-30T17:43:23.721Z,10.93
2018-08-30T17:46:01.849Z,11.10
2018-08-30T17:48:30.717Z,10.83
2018-08-30T17:51:04.297Z,9.70
2018-08-30T17:53:41.976Z,11.17
2018-08-30T17:56:11.673Z,12.40
2018-08-30T17:58:40.261Z,10.73
2018-08-30T18:01:09.493Z,12.03
2018-08-30T18:03:38.650Z,11.20
2018-08-30T18:06:12.004Z,11.70
2018-08-30T18:08:42.243Z,10.53
2018-08-30T18:11:12.162Z,11.20
2018-08-30T18:13:40.759Z,11.20
2018-08-30T18:16:13.311Z,11.60
2018-08-30T18:18:42.126Z,11.50
2018-08-30T18:21:10.891Z,12.17
2018-08-30T18:23:40.234Z,11.40
2018-08-30T18:26:19.161Z,13.17
2018-08-30T18:28:56.379Z,11.67
2018-08-30T18:31:27.072Z,11.37
2018-08-30T18:33:56.727Z,12.53
2018-08-30T18:36:33.218Z,11.73
2018-08-30T18:39:11.704Z,11.67
2018-08-30T18:41:46.867Z,12.40
2018-08-30T18:44:15.966Z,12.80
2018-08-30T18:46:44.719Z,10.60
2018-08-30T18:49:23.244Z,11.47
2018-08-30T18:52:02.886Z,13.30
2018-08-30T18:54:34.761Z,11.47
2018-08-30T18:57:03.446Z,13.20
2018-08-30T18:59:32.592Z,12.33
2018-08-30T19:02:06.553Z,11.17
2018-08-30T19:04:45.856Z,12.77
2018-08-30T19:07:24.428Z,13.20
2018-08-30T19:09:55.751Z,13.67
2018-08-30T19:12:24.908Z,12.13
2018-08-30T19:14:53.568Z,11.83
2018-08-30T19:17:32.480Z,12.80
2018-08-30T19:20:03.988Z,12.50
2018-08-30T19:22:35.591Z,11.57
2018-08-30T19:25:10.020Z,11.90
2018-08-30T19:27:39.664Z,13.13
2018-08-30T19:30:23.326Z,12.03
2018-08-30T19:32:51.577Z,11.53
2018-08-30T19:35:25.477Z,12.90
2018-08-30T19:37:53.762Z,14.00
2018-08-30T19:40:27.818Z,11.73
2018-08-30T19:42:56.787Z,13.37
2018-08-30T19:45:25.497Z,11.80
2018-08-30T19:47:55.016Z,12.47
2018-08-30T19:50:23.246Z,11.80
2018-08-30T19:52:52.708Z,12.83
2018-08-30T19:55:21.903Z,14.20
2018-08-30T19:57:50.583Z,13.77
2018-08-30T20:00:22.515Z,12.73
2018-08-30T20:02:53.244Z,13.67
2018-08-30T20:05:21.853Z,13.33
2018-08-30T20:07:51.204Z,14.00
2018-08-30T20:10:19.755Z,14.60
2018-08-30T20:12:48.237Z,14.70
2018-08-30T20:15:16.918Z,14.10
2018-08-30T20:17:45.556Z,15.33
2018-08-30T20:20:14.068Z,14.43
2018-08-30T20:22:44.918Z,13.70
2018-08-30T20:25:14.025Z,13.67
2018-08-30T20:27:42.593Z,12.27
2018-08-30T20:30:11.142Z,12.80
2018-08-30T20:32:40.678Z,12.90
2018-08-30T20:35:09.316Z,12.63
2018-08-30T20:37:38.475Z,12.87
2018-08-30T20:40:07.814Z,12.93
2018-08-30T20:42:36.375Z,12.77
2018-08-30T20:45:05.296Z,12.70
2018-08-30T20:47:33.825Z,14.07
2018-08-30T20:50:02.781Z,13.60
2018-08-30T20:52:31.420Z,13.90
2018-08-30T20:55:00.578Z,13.17
2018-08-30T20:57:29.194Z,12.90
2018-08-30T20:59:58.121Z,13.47
2018-08-30T21:02:26.984Z,13.30
2018-08-30T21:04:55.651Z,13.47
2018-08-30T21:07:24.645Z,12.90
2018-08-30T21:09:53.308Z,13.70
2018-08-30T21:12:21.532Z,13.97
2018-08-30T21:14:50.117Z,11.97
2018-08-30T21:17:19.306Z,12.17
2018-08-30T21:19:48.207Z,13.23
2018-08-30T21:22:16.812Z,13.40
2018-08-30T21:24:45.419Z,14.67
2018-08-30T21:27:14.610Z,14.47
2018-08-30T21:29:43.217Z,16.20
2018-08-30T21:32:12.470Z,16.03
2018-08-30T21:34:40.956Z,15.93
2018-08-30T21:37:09.421Z,14.67
2018-08-30T21:39:37.906Z,16.20
2018-08-30T21:42:07.365Z,14.70
2018-08-30T21:44:35.808Z,15.00
2018-08-30T21:47:04.278Z,14.17
2018-08-30T21:49:32.731Z,15.07
2018-08-30T21:52:01.239Z,14.63
2018-08-30T21:54:29.611Z,17.20
2018-08-30T21:56:58.091Z,16.47
2018-08-30T21:59:26.562Z,17.53
2018-08-30T22:01:55.029Z,15.70
2018-08-30T22:04:23.471Z,14.17
2018-08-30T22:06:51.914Z,14.97
2018-08-30T22:09:20.414Z,15.77
2018-08-30T22:11:48.847Z,16.60
2018-08-30T22:14:17.467Z,17.30
2018-08-30T22:16:46.934Z,17.10
2018-08-30T22:19:15.405Z,15.17
2018-08-30T22:21:43.919Z,16.63
2018-08-30T22:24:12.077Z,15.60
2018-08-30T22:26:40.567Z,16.97
2018-08-30T22:29:08.971Z,17.03
2018-08-30T22:31:37.395Z,16.80
2018-08-30T22:34:05.853Z,20.13
2018-08-30T22:36:34.339Z,18.90
2018-08-30T22:39:02.839Z,19.90
2018-08-30T22:41:31.361Z,17.67
2018-08-30T22:43:59.767Z,18.27
2018-08-30T22:46:28.175Z,19.50
2018-08-30T22:48:56.611Z,17.33
2018-08-30T22:51:25.169Z,18.07
2018-08-30T22:53:53.595Z,17.83
2018-08-30T22:56:22.051Z,19.07
2018-08-30T22:58:50.475Z,20.30
2018-08-30T23:01:19.121Z,20.70
2018-08-30T23:03:47.565Z,17.00
2018-08-30T23:06:15.965Z,17.77
2018-08-30T23:08:44.369Z,19.27
2018-08-30T23:11:12.795Z,19.97
2018-08-30T23:13:41.269Z,20.10
2018-08-30T23:16:09.731Z,20.37
2018-08-30T23:18:37.865Z,19.60
2018-08-30T23:21:06.395Z,19.80
2018-08-30T23:23:34.788Z,21.03
2018-08-30T23:26:03.273Z,18.10
2018-08-30T23:28:31.693Z,17.93
2018-08-30T23:31:00.161Z,17.80
2018-08-30T23:33:28.592Z,21.00
2018-08-30T23:35:57.025Z,19.67
2018-08-30T23:38:25.432Z,18.03
2018-08-30T23:40:53.879Z,18.73
2018-08-30T23:43:22.407Z,18.70
2018-08-30T23:45:50.833Z,16.47
2018-08-30T23:48:19.279Z,19.43
2018-08-30T23:50:47.695Z,19.57
2018-08-30T23:53:16.146Z,21.67
2018-08-30T23:55:44.607Z,22.17
2018-08-30T23:58:24.307Z,23.93
